Time;durP1;ratioP1;P1;durP2;ratioP2;P2;SDS_P1;SDS_P2;PMS_P1;PMS_P2;Temp;Humidity;BMP_temperature;BMP_pressure;BME280_temperature;BME280_humidity;BME280_pressure;Samples;Min_cycle;Max_cycle;Signal;HPM_P1;HPM_P2
2022/01/07 00:00:53;;;;;;;19.07;14.50;;;;;;;8.56;72.39;99372.88;5072290;28;20200;-57
2022/01/07 00:03:22;;;;;;;18.53;12.47;;;;;;;8.58;72.33;99372.91;5072383;28;20198;-57
2022/01/07 00:05:49;;;;;;;20.77;13.27;;;;;;;8.57;72.25;99384.84;5072460;28;20655;-57
2022/01/07 00:08:16;;;;;;;20.60;12.97;;;;;;;8.58;72.19;99385.69;5052329;28;20211;-57
2022/01/07 00:10:43;;;;;;;18.70;13.07;;;;;;;8.58;72.28;99390.81;5060431;28;20232;-58
2022/01/07 00:13:10;;;;;;;19.80;13.00;;;;;;;8.50;72.47;99392.34;5071464;28;20289;-57
2022/01/07 00:15:39;;;;;;;17.20;13.73;;;;;;;8.48;72.14;99389.78;5071833;28;20188;-57
2022/01/07 00:18:06;;;;;;;20.97;12.53;;;;;;;8.46;71.84;99396.53;5071746;28;20282;-57
2022/01/07 00:20:33;;;;;;;14.80;12.00;;;;;;;8.44;72.27;99399.88;5068779;28;20700;-57
2022/01/07 00:23:01;;;;;;;18.50;11.93;;;;;;;8.39;72.03;99410.03;5071761;28;20189;-57
2022/01/07 00:25:28;;;;;;;17.37;12.70;;;;;;;8.42;72.10;99411.78;5070565;28;20182;-57
2022/01/07 00:27:55;;;;;;;15.43;11.97;;;;;;;8.32;72.04;99403.06;5068570;28;20310;-57
2022/01/07 00:30:22;;;;;;;17.33;12.77;;;;;;;8.25;72.26;99411.34;5071374;28;20190;-57
2022/01/07 00:32:52;;;;;;;17.20;12.67;;;;;;;8.29;72.41;99424.28;5071276;28;20225;-57
2022/01/07 00:35:21;;;;;;;16.37;11.80;;;;;;;8.30;72.45;99426.03;5071325;28;20194;-57
2022/01/07 00:37:49;;;;;;;14.33;11.63;;;;;;;8.20;72.54;99426.63;5071447;28;20289;-57
2022/01/07 00:40:18;;;;;;;17.47;12.60;;;;;;;8.12;72.63;99433.25;5072017;28;20236;-57
2022/01/07 00:42:48;;;;;;;14.97;10.43;;;;;;;8.11;72.60;99435.75;5071909;28;20197;-57
2022/01/07 00:45:15;;;;;;;14.37;10.47;;;;;;;8.09;72.62;99437.41;5071586;28;20204;-57
2022/01/07 00:47:42;;;;;;;15.17;11.20;;;;;;;8.02;72.77;99438.09;5071677;28;20645;-57
2022/01/07 00:50:11;;;;;;;16.27;12.03;;;;;;;8.02;73.39;99438.94;5067768;28;20203;-57
2022/01/07 00:52:38;;;;;;;18.77;11.33;;;;;;;7.93;73.48;99451.50;5051310;28;20224;-57
2022/01/07 00:55:07;;;;;;;15.17;11.77;;;;;;;7.71;73.59;99416.84;5051534;28;20303;-57
2022/01/07 00:57:34;;;;;;;14.80;11.67;;;;;;;7.87;73.41;99455.59;5051519;28;20726;-57
2022/01/07 01:00:01;;;;;;;14.17;11.57;;;;;;;7.84;73.52;99456.38;5051391;28;20278;-57
2022/01/07 01:02:28;;;;;;;15.03;11.50;;;;;;;7.83;73.88;99453.81;5051656;28;20615;-57
2022/01/07 01:04:55;;;;;;;15.73;11.23;;;;;;;7.70;73.80;99452.59;5051422;28;20226;-57
2022/01/07 01:07:23;;;;;;;17.17;12.03;;;;;;;7.66;73.77;99450.78;5068401;28;20199;-57
2022/01/07 01:09:50;;;;;;;15.93;12.43;;;;;;;7.72;74.11;99450.94;5071297;28;20211;-57
2022/01/07 01:12:17;;;;;;;13.03;10.33;;;;;;;7.71;74.29;99464.56;5070984;28;20222;-57
2022/01/07 01:14:44;;;;;;;16.93;11.47;;;;;;;7.73;74.19;99463.78;5070817;28;20224;-57
2022/01/07 01:17:10;;;;;;;15.87;11.53;;;;;;;7.71;74.56;99456.88;5070990;28;20279;-57
2022/01/07 01:19:38;;;;;;;13.57;11.10;;;;;;;7.65;74.36;99467.81;5071082;28;20277;-57
2022/01/07 01:22:05;;;;;;;13.60;10.57;;;;;;;7.63;74.31;99466.91;5070755;28;20187;-58
2022/01/07 01:24:33;;;;;;;15.80;10.30;;;;;;;7.60;74.65;99465.97;5071007;28;20195;-58
2022/01/07 01:27:00;;;;;;;14.20;10.83;;;;;;;7.65;74.34;99475.50;5070685;28;20599;-57
2022/01/07 01:29:28;;;;;;;16.23;11.17;;;;;;;7.68;73.77;99475.56;5070719;28;20191;-57
2022/01/07 01:31:55;;;;;;;15.33;10.53;;;;;;;7.66;74.24;99466.13;5070710;28;20562;-58
2022/01/07 01:34:22;;;;;;;13.37;10.87;;;;;;;7.71;74.00;99469.69;5070655;28;20658;-58
2022/01/07 01:36:49;;;;;;;16.17;10.67;;;;;;;7.70;74.03;99471.34;5070646;28;20272;-57
2022/01/07 01:39:16;;;;;;;15.63;10.70;;;;;;;7.69;73.92;99469.63;5070836;28;20193;-58
2022/01/07 01:41:44;;;;;;;13.60;10.37;;;;;;;7.66;73.54;99463.56;5070761;28;20275;-58
2022/01/07 01:44:12;;;;;;;13.80;10.20;;;;;;;7.77;73.50;99474.97;5070768;28;20509;-58
2022/01/07 01:46:39;;;;;;;16.55;11.63;;;;;;;7.77;73.09;99477.53;5070340;28;20440;-58
2022/01/07 01:49:06;;;;;;;12.10;9.23;;;;;;;7.85;72.73;99477.72;5070545;28;20286;-58
2022/01/07 01:51:36;;;;;;;13.00;9.57;;;;;;;7.84;72.98;99473.41;5070649;28;20187;-57
2022/01/07 01:54:04;;;;;;;12.93;9.83;;;;;;;7.87;73.03;99482.03;5070452;28;20244;-57
2022/01/07 01:56:32;;;;;;;13.87;9.57;;;;;;;7.91;72.67;99476.16;5070595;28;20663;-58
2022/01/07 01:59:01;;;;;;;13.48;10.82;;;;;;;7.87;72.67;99481.16;5069555;28;20963;-57
2022/01/07 02:01:28;;;;;;;12.53;9.47;;;;;;;7.96;72.19;99478.88;5070942;28;20300;-57
2022/01/07 02:03:56;;;;;;;12.40;10.07;;;;;;;8.01;72.00;99480.72;5070605;28;21078;-57
2022/01/07 02:06:22;;;;;;;10.37;8.23;;;;;;;8.03;72.16;99484.16;5070536;28;20302;-57
2022/01/07 02:08:52;;;;;;;13.20;9.60;;;;;;;8.00;71.80;99484.09;5070412;28;20203;-57
2022/01/07 02:11:19;;;;;;;11.07;9.10;;;;;;;7.94;72.46;99488.19;5070638;28;20313;-57
2022/01/07 02:13:48;;;;;;;11.27;9.27;;;;;;;7.89;72.08;99482.94;5070049;28;20215;-57
2022/01/07 02:16:16;;;;;;;12.77;9.60;;;;;;;7.92;72.37;99497.50;5070407;28;20194;-58
2022/01/07 02:18:43;;;;;;;13.97;10.63;;;;;;;7.84;73.00;99488.75;5070205;28;20187;-58
2022/01/07 02:21:13;;;;;;;12.80;10.17;;;;;;;7.67;73.02;99478.06;5070051;28;20201;-58
2022/01/07 02:23:40;;;;;;;18.00;10.50;;;;;;;7.82;73.21;99490.41;5070200;28;20197;-58
2022/01/07 02:26:08;;;;;;;14.80;10.57;;;;;;;7.80;72.78;99502.31;5069941;28;20203;-58
2022/01/07 02:28:35;;;;;;;11.97;10.10;;;;;;;7.75;73.26;99502.16;5069871;28;20236;-58
2022/01/07 02:31:03;;;;;;;14.43;10.33;;;;;;;7.79;73.22;99501.44;5070210;28;20203;-58
2022/01/07 02:33:30;;;;;;;16.37;10.20;;;;;;;7.75;73.54;99506.44;5070010;28;20675;-57
2022/01/07 02:35:57;;;;;;;14.05;11.95;;;;;;;7.74;73.84;99510.69;5069196;28;20517;-58
2022/01/07 02:38:25;;;;;;;16.93;10.23;;;;;;;7.82;73.06;99523.66;5070232;28;20280;-58
2022/01/07 02:40:52;;;;;;;13.70;10.93;;;;;;;7.73;73.27;99517.47;5054716;28;20394;-58
2022/01/07 02:43:19;;;;;;;14.63;10.03;;;;;;;7.78;73.46;99526.94;5064273;28;20183;-58
2022/01/07 02:45:46;;;;;;;14.43;10.37;;;;;;;7.73;73.90;99527.69;5069248;28;20673;-58
2022/01/07 02:48:13;;;;;;;15.38;11.90;;;;;;;7.74;73.35;99526.03;5069349;28;20536;-58
2022/01/07 02:50:40;;;;;;;13.67;9.77;;;;;;;7.78;73.52;99529.50;5073060;28;20226;-58
2022/01/07 02:53:09;;;;;;;14.37;9.67;;;;;;;7.79;73.21;99527.00;5073334;28;20298;-57
2022/01/07 02:55:39;;;;;;;12.30;9.67;;;;;;;7.73;73.53;99521.72;5073167;28;20180;-58
2022/01/07 02:58:07;;;;;;;11.90;9.13;;;;;;;7.70;74.04;99521.63;5073532;28;20281;-58
2022/01/07 03:00:35;;;;;;;13.60;10.63;;;;;;;7.70;73.71;99531.84;5073624;28;20643;-59
2022/01/07 03:03:04;;;;;;;12.50;10.10;;;;;;;7.69;73.83;99532.69;5073450;28;20197;-58
2022/01/07 03:05:32;;;;;;;14.23;10.00;;;;;;;7.70;73.47;99542.09;5074079;28;20203;-57
2022/01/07 03:07:59;;;;;;;16.43;9.97;;;;;;;7.59;73.98;99534.13;5073647;28;20201;-57
2022/01/07 03:10:29;;;;;;;13.13;9.37;;;;;;;7.64;73.72;99544.47;5073762;28;20248;-58
2022/01/07 03:12:59;;;;;;;12.43;9.97;;;;;;;7.65;73.75;99546.22;5073489;28;20220;-57
2022/01/07 03:15:26;;;;;;;11.77;8.70;;;;;;;7.68;74.21;99548.84;5073247;28;20689;-57
2022/01/07 03:17:52;;;;;;;12.53;9.53;;;;;;;7.64;73.55;99550.44;5073276;28;20574;-57
2022/01/07 03:20:21;;;;;;;12.50;9.77;;;;;;;7.66;73.77;99553.91;5073125;28;20192;-57
2022/01/07 03:22:48;;;;;;;15.00;10.53;;;;;;;7.64;73.91;99553.00;5072734;28;20189;-58
2022/01/07 03:25:16;;;;;;;14.23;10.73;;;;;;;7.63;73.63;99555.53;5073200;28;20574;-57
2022/01/07 03:27:43;;;;;;;11.60;9.33;;;;;;;7.69;73.42;99561.66;5071691;28;20232;-58
2022/01/07 03:30:16;;;;;;;13.73;9.60;;;;;;;7.71;73.68;99565.16;5072814;28;20741;-58
2022/01/07 03:32:43;;;;;;;15.13;9.70;;;;;;;7.69;73.26;99569.34;5073174;28;20280;-58
2022/01/07 03:35:11;;;;;;;13.17;10.27;;;;;;;7.71;73.62;99582.19;5072799;28;20193;-58
2022/01/07 03:37:38;;;;;;;14.77;11.93;;;;;;;7.80;73.65;99576.47;5071891;28;20821;-58
2022/01/07 03:40:06;;;;;;;17.43;9.80;;;;;;;7.88;72.91;99575.00;5072928;28;20304;-58
2022/01/07 03:42:33;;;;;;;15.00;9.90;;;;;;;7.44;72.92;99513.25;5072786;28;20281;-58
2022/01/07 03:45:00;;;;;;;14.80;10.70;;;;;;;7.82;73.49;99582.50;5072352;28;20281;-57
2022/01/07 03:47:29;;;;;;;13.07;10.07;;;;;;;7.83;73.37;99594.47;5072570;28;20185;-57
2022/01/07 03:49:56;;;;;;;12.03;10.37;;;;;;;7.70;73.74;99594.09;5072256;28;20200;-57
2022/01/07 03:52:22;;;;;;;13.67;10.27;;;;;;;7.74;73.46;99597.63;5072437;28;20203;-57
2022/01/07 03:54:50;;;;;;;12.70;10.03;;;;;;;7.64;74.01;99585.38;5072448;28;20238;-57
2022/01/07 03:57:18;;;;;;;15.83;10.20;;;;;;;7.69;73.61;99610.25;5071948;28;20202;-57
2022/01/07 03:59:44;;;;;;;14.83;10.37;;;;;;;7.72;73.60;99605.22;5072883;28;20213;-57
2022/01/07 04:02:12;;;;;;;12.97;9.23;;;;;;;7.65;73.75;99605.03;5072573;28;20209;-57
2022/01/07 04:04:40;;;;;;;12.23;9.30;;;;;;;7.66;73.74;99614.44;5072546;28;20187;-57
2022/01/07 04:07:07;;;;;;;13.60;9.93;;;;;;;7.60;73.62;99612.56;5072628;28;20258;-57
2022/01/07 04:09:34;;;;;;;14.00;9.53;;;;;;;7.59;73.72;99613.38;5072735;28;20193;-57
2022/01/07 04:12:01;;;;;;;13.23;9.03;;;;;;;7.57;73.98;99614.16;5072586;28;20320;-57
2022/01/07 04:14:28;;;;;;;13.97;9.90;;;;;;;7.59;74.05;99615.94;5072446;28;20228;-58
2022/01/07 04:16:56;;;;;;;20.63;10.57;;;;;;;7.53;73.89;99622.53;5072458;28;20207;-58
2022/01/07 04:19:23;;;;;;;12.93;9.90;;;;;;;7.55;74.34;99621.75;5072307;28;20193;-57
2022/01/07 04:21:52;;;;;;;12.93;9.80;;;;;;;7.50;74.36;99622.44;5072458;28;20202;-56
2022/01/07 04:24:20;;;;;;;14.50;9.50;;;;;;;7.51;73.79;99630.19;5071850;28;20287;-57
2022/01/07 04:26:47;;;;;;;13.73;11.15;;;;;;;7.51;74.15;99637.84;5059675;28;20443;-57
2022/01/07 04:29:14;;;;;;;13.33;9.43;;;;;;;7.54;73.97;99642.19;5051816;28;20233;-57
2022/01/07 04:31:40;;;;;;;12.20;8.97;;;;;;;7.52;73.61;99647.25;5051999;28;20750;-56
2022/01/07 04:34:07;;;;;;;13.43;8.80;;;;;;;7.54;73.37;99639.63;5051850;28;20225;-57
2022/01/07 04:36:34;;;;;;;12.63;9.10;;;;;;;7.44;73.27;99638.50;5051715;28;20197;-57
2022/01/07 04:39:03;;;;;;;11.33;8.70;;;;;;;7.46;73.32;99639.41;5051656;28;20279;-57
2022/01/07 04:41:30;;;;;;;13.03;9.13;;;;;;;7.43;73.37;99639.31;5052015;28;20231;-57
2022/01/07 04:43:57;;;;;;;13.90;9.33;;;;;;;7.38;73.90;99643.41;5051619;28;20283;-57
2022/01/07 04:46:24;;;;;;;13.10;9.50;;;;;;;7.39;73.45;99650.25;5051548;28;20272;-57
2022/01/07 04:48:50;;;;;;;12.77;9.37;;;;;;;7.40;73.24;99657.09;5051677;28;20190;-57
2022/01/07 04:51:17;;;;;;;15.00;9.63;;;;;;;7.41;73.46;99652.84;5051433;28;20200;-57
2022/01/07 04:53:44;;;;;;;14.93;9.57;;;;;;;7.47;73.39;99660.72;5054891;28;20203;-58
2022/01/07 04:56:12;;;;;;;13.30;8.37;;;;;;;7.44;73.04;99658.06;5071412;28;20281;-58
2022/01/07 04:58:39;;;;;;;12.40;8.83;;;;;;;7.38;73.53;99662.97;5071367;28;20198;-57
2022/01/07 05:01:06;;;;;;;13.53;9.57;;;;;;;7.41;73.41;99666.50;5071099;28;20191;-58
2022/01/07 05:03:33;;;;;;;13.33;9.13;;;;;;;7.39;73.58;99673.25;5071360;28;20229;-58
2022/01/07 05:06:13;;;;;;;11.37;8.80;;;;;;;7.38;72.94;99679.19;5071137;28;20205;-57
2022/01/07 05:08:40;;;;;;;11.03;8.77;;;;;;;6.88;73.01;99602.59;5071365;28;20200;-57
2022/01/07 05:11:07;;;;;;;17.13;9.83;;;;;;;7.32;73.43;99688.34;5070719;28;20201;-57
2022/01/07 05:13:35;;;;;;;13.43;9.03;;;;;;;7.33;72.88;99688.41;5071086;28;20222;-58
2022/01/07 05:16:02;;;;;;;12.52;9.18;;;;;;;7.31;73.15;99687.47;5070647;28;20434;-57
2022/01/07 05:18:29;;;;;;;11.47;9.00;;;;;;;7.28;73.78;99691.63;5070983;28;20316;-58
2022/01/07 05:20:56;;;;;;;11.93;8.87;;;;;;;7.30;73.81;99695.97;5071083;28;20297;-57
2022/01/07 05:23:23;;;;;;;14.73;9.67;;;;;;;7.30;74.13;99710.44;5070887;28;20189;-58
2022/01/07 05:25:50;;;;;;;17.20;9.43;;;;;;;7.34;73.97;99707.13;5070347;28;20284;-58
2022/01/07 05:28:17;;;;;;;14.70;9.30;;;;;;;7.30;74.14;99708.75;5070337;28;20610;-58
2022/01/07 05:30:45;;;;;;;16.93;10.60;;;;;;;7.34;73.41;99722.47;5070402;28;20678;-58
2022/01/07 05:33:12;;;;;;;13.50;10.10;;;;;;;7.29;73.45;99726.56;5070429;28;20189;-58
2022/01/07 05:35:39;;;;;;;17.23;10.53;;;;;;;7.34;73.51;99727.59;5070951;28;20205;-57
2022/01/07 05:38:06;;;;;;;15.93;10.17;;;;;;;7.29;73.68;99735.09;5070511;28;20200;-57
2022/01/07 05:40:33;;;;;;;15.80;11.07;;;;;;;7.29;73.71;99731.69;5070652;28;20288;-58
2022/01/07 05:43:00;;;;;;;14.43;10.23;;;;;;;7.30;73.87;99741.09;5070708;28;20280;-57
2022/01/07 05:45:27;;;;;;;20.50;9.60;;;;;;;7.30;74.00;99746.22;5070414;28;20215;-56
2022/01/07 05:47:55;;;;;;;13.43;10.73;;;;;;;7.27;74.22;99734.19;5069626;28;20193;-57
2022/01/07 05:50:22;;;;;;;15.37;10.57;;;;;;;7.28;74.44;99745.28;5070617;28;20226;-57
2022/01/07 05:52:49;;;;;;;13.77;10.73;;;;;;;7.29;73.96;99742.78;5070401;28;20817;-58
2022/01/07 05:55:16;;;;;;;16.00;10.57;;;;;;;7.27;74.06;99741.88;5070478;28;20231;-57
2022/01/07 05:57:43;;;;;;;18.77;10.70;;;;;;;7.25;74.72;99738.38;5070712;28;20201;-57
2022/01/07 06:00:12;;;;;;;19.13;10.83;;;;;;;7.27;74.06;99733.31;5070504;28;20194;-57
2022/01/07 06:02:39;;;;;;;17.30;10.13;;;;;;;7.28;74.53;99732.53;5069982;28;20205;-58
2022/01/07 06:05:08;;;;;;;12.77;9.90;;;;;;;7.31;73.74;99736.03;5069377;28;20195;-57
2022/01/07 06:07:35;;;;;;;18.80;12.55;;;;;;;7.32;74.10;99729.22;5069107;28;20520;-58
2022/01/07 06:10:02;;;;;;;16.20;10.23;;;;;;;7.40;72.96;99736.34;5070086;28;20218;-59
2022/01/07 06:12:29;;;;;;;13.23;9.60;;;;;;;7.36;72.73;99729.38;5069721;28;20194;-57
2022/01/07 06:14:57;;;;;;;14.77;10.10;;;;;;;7.22;72.52;99717.84;5069732;28;20225;-58
2022/01/07 06:17:24;;;;;;;12.80;8.27;;;;;;;7.42;71.65;99744.03;5069624;28;20193;-57
2022/01/07 06:19:51;;;;;;;11.43;9.17;;;;;;;7.39;71.70;99751.63;5069769;28;20275;-58
2022/01/07 06:22:19;;;;;;;13.57;8.60;;;;;;;7.33;71.56;99736.97;5069767;28;20196;-58
2022/01/07 06:24:46;;;;;;;12.70;9.47;;;;;;;7.41;72.17;99755.09;5073135;28;20196;-58
2022/01/07 06:27:13;;;;;;;12.03;8.80;;;;;;;7.37;71.85;99750.69;5073814;28;20236;-57
2022/01/07 06:29:40;;;;;;;12.60;9.27;;;;;;;7.38;72.78;99755.88;5073587;28;20279;-58
2022/01/07 06:32:08;;;;;;;12.40;8.87;;;;;;;7.42;72.15;99757.69;5074036;28;20195;-58
2022/01/07 06:34:35;;;;;;;13.20;9.50;;;;;;;7.51;71.97;99754.56;5074129;28;20222;-58
2022/01/07 06:37:03;;;;;;;14.03;8.83;;;;;;;7.51;71.83;99767.34;5073467;28;20195;-58
2022/01/07 06:39:32;;;;;;;12.27;9.20;;;;;;;7.52;72.09;99769.09;5073274;28;20192;-58
2022/01/07 06:42:00;;;;;;;13.27;9.70;;;;;;;7.54;71.86;99772.56;5073782;28;20334;-57
2022/01/07 06:44:27;;;;;;;13.43;9.47;;;;;;;7.53;71.48;99775.94;5073729;28;20212;-58
2022/01/07 06:46:55;;;;;;;15.33;9.87;;;;;;;7.54;71.50;99776.00;5073611;28;20187;-58
2022/01/07 06:49:22;;;;;;;12.93;9.57;;;;;;;7.59;70.91;99784.69;5073792;28;20190;-58
2022/01/07 06:51:49;;;;;;;13.23;9.30;;;;;;;7.62;70.68;99784.78;5073916;28;20543;-58
2022/01/07 06:54:16;;;;;;;15.47;9.60;;;;;;;7.67;70.76;99785.78;5073215;28;20219;-58
2022/01/07 06:56:45;;;;;;;13.77;8.17;;;;;;;7.79;70.42;99784.44;5073599;28;20200;-58
2022/01/07 06:59:13;;;;;;;13.50;10.30;;;;;;;7.83;70.18;99768.41;5073609;28;20178;-58
2022/01/07 07:01:40;;;;;;;12.87;10.03;;;;;;;7.90;70.09;99775.44;5073365;28;20574;-57
2022/01/07 07:04:07;;;;;;;14.80;9.33;;;;;;;7.91;70.13;99782.28;5073203;28;20276;-58
2022/01/07 07:06:34;;;;;;;13.73;9.70;;;;;;;7.84;70.25;99770.13;5072994;28;20186;-58
2022/01/07 07:09:01;;;;;;;10.77;8.87;;;;;;;7.88;70.06;99783.06;5073109;28;20243;-58
2022/01/07 07:11:28;;;;;;;12.50;9.17;;;;;;;7.89;69.88;99776.22;5073114;28;20226;-57
2022/01/07 07:13:57;;;;;;;13.50;9.03;;;;;;;7.91;69.82;99779.72;5073266;28;20200;-58
2022/01/07 07:16:24;;;;;;;13.83;9.60;;;;;;;7.89;70.18;99781.34;5072862;28;20290;-58
2022/01/07 07:18:51;;;;;;;14.97;10.67;;;;;;;7.84;70.38;99780.34;5072737;28;20434;-58
2022/01/07 07:21:18;;;;;;;15.37;10.10;;;;;;;7.94;70.13;99792.63;5072594;28;20287;-59
2022/01/07 07:23:45;;;;;;;17.60;10.10;;;;;;;7.97;70.25;99785.88;5072614;28;20312;-59
2022/01/07 07:26:12;;;;;;;16.93;9.80;;;;;;;8.03;69.94;99792.88;5072412;28;20189;-59
2022/01/07 07:28:39;;;;;;;16.83;10.63;;;;;;;8.02;69.57;99789.44;5072080;28;20216;-60
2022/01/07 07:31:11;;;;;;;13.47;9.60;;;;;;;8.06;69.77;99786.19;5072471;28;20191;-59
2022/01/07 07:34:06;;;;;;;13.10;8.97;;;;;;;8.02;69.76;99789.44;5071518;28;20190;-59
2022/01/07 07:36:34;;;;;;;12.53;8.67;;;;;;;8.06;69.37;99795.53;5069537;28;20195;-57
2022/01/07 07:39:03;;;;;;;13.67;9.80;;;;;;;8.04;69.35;99794.63;5073015;28;20195;-57
2022/01/07 07:41:31;;;;;;;14.23;9.60;;;;;;;8.02;69.41;99786.88;5072408;28;20206;-58
2022/01/07 07:43:59;;;;;;;12.17;9.13;;;;;;;8.02;69.03;99786.88;5072014;28;20182;-58
2022/01/07 07:46:30;;;;;;;13.87;9.27;;;;;;;8.00;69.02;99788.53;5068876;28;20201;-58
2022/01/07 07:48:58;;;;;;;19.70;10.53;;;;;;;8.06;68.75;99790.41;5071722;28;20243;-58
2022/01/07 07:51:25;;;;;;;14.47;9.63;;;;;;;8.06;68.84;99785.31;5071922;28;20191;-57
2022/01/07 07:53:52;;;;;;;16.47;9.93;;;;;;;8.13;68.94;99792.38;5072157;28;20374;-57
2022/01/07 07:56:20;;;;;;;15.93;9.33;;;;;;;8.12;68.48;99790.63;5072156;28;20210;-57
2022/01/07 07:58:47;;;;;;;16.10;10.03;;;;;;;8.24;68.70;99796.97;5072587;28;20201;-58
2022/01/07 08:01:14;;;;;;;13.80;10.27;;;;;;;8.30;68.36;99799.75;5071684;28;20190;-59
2022/01/07 08:03:43;;;;;;;17.25;11.35;;;;;;;8.33;68.61;99798.97;5068081;28;20524;-58
2022/01/07 08:06:10;;;;;;;14.47;11.00;;;;;;;8.40;68.58;99811.16;5069880;28;21017;-58
2022/01/07 08:08:37;;;;;;;13.97;11.53;;;;;;;8.38;68.71;99804.25;5071451;28;20221;-59
2022/01/07 08:11:08;;;;;;;16.47;11.30;;;;;;;8.49;68.85;99801.16;5071675;28;20203;-59
2022/01/07 08:16:16;;;;;;;20.98;12.85;;;;;;;8.69;68.75;99807.72;5071389;28;20438;-58
2022/01/07 08:18:44;;;;;;;19.10;12.83;;;;;;;8.83;68.29;99798.75;5071719;28;20280;-58
2022/01/07 08:21:12;;;;;;;17.10;12.17;;;;;;;8.83;67.57;99777.38;5071469;28;20554;-59
2022/01/07 08:23:41;;;;;;;24.60;12.43;;;;;;;8.96;67.12;99794.81;5071599;28;20271;-59
2022/01/07 08:26:10;;;;;;;20.00;12.13;;;;;;;8.98;67.00;99793.19;5071380;28;20194;-59
2022/01/07 08:28:41;;;;;;;13.27;10.37;;;;;;;8.97;66.85;99793.13;5071446;28;20230;-58
2022/01/07 08:31:27;;;;;;;15.30;11.37;;;;;;;8.97;66.55;99793.13;5071169;28;20677;-60
2022/01/07 08:36:39;;;;;;;20.47;11.40;;;;;;;8.97;67.18;99796.56;5070545;28;20212;-58
2022/01/07 08:39:08;;;;;;;17.87;11.50;;;;;;;8.99;66.80;99781.22;5071217;28;20194;-60
2022/01/07 08:41:36;;;;;;;18.73;12.70;;;;;;;8.90;66.96;99777.56;5070670;28;20190;-59
2022/01/07 08:44:03;;;;;;;17.57;12.50;;;;;;;9.01;67.05;99785.53;5070495;28;20183;-59
2022/01/07 08:46:30;;;;;;;25.77;13.00;;;;;;;9.04;67.06;99783.06;5068882;28;20194;-59
2022/01/07 08:48:59;;;;;;;20.67;12.67;;;;;;;8.98;66.94;99751.31;5070715;28;20320;-59
2022/01/07 08:51:27;;;;;;;19.73;12.33;;;;;;;9.22;66.56;99769.88;5070245;28;20179;-59
2022/01/07 08:53:55;;;;;;;18.53;12.13;;;;;;;9.41;65.66;99787.47;5069953;28;20201;-59
2022/01/07 08:56:23;;;;;;;18.97;12.27;;;;;;;9.57;65.69;99788.72;5070339;28;20593;-59
2022/01/07 08:58:51;;;;;;;15.83;12.07;;;;;;;9.63;64.87;99783.75;5070005;28;20209;-59
2022/01/07 09:01:18;;;;;;;15.57;11.83;;;;;;;9.87;64.77;99782.63;5068006;28;20244;-59
2022/01/07 09:03:45;;;;;;;17.77;12.98;;;;;;;10.09;64.09;99787.44;5069488;28;20940;-59
2022/01/07 09:06:14;;;;;;;18.23;12.63;;;;;;;10.27;62.84;99773.31;5070851;28;20654;-59
2022/01/07 09:08:41;;;;;;;16.70;11.03;;;;;;;10.25;61.77;99780.97;5069844;28;20209;-59
2022/01/07 09:11:08;;;;;;;11.73;9.30;;;;;;;10.25;61.46;99770.69;5070394;28;20191;-59
2022/01/07 09:13:35;;;;;;;13.43;9.60;;;;;;;10.21;61.64;99773.16;5070465;28;20200;-59
2022/01/07 09:16:02;;;;;;;12.90;9.37;;;;;;;10.24;61.22;99770.66;5070015;28;20214;-58
2022/01/07 09:18:31;;;;;;;16.43;10.03;;;;;;;10.19;61.28;99780.81;5070092;28;20330;-59
2022/01/07 09:20:59;;;;;;;10.77;8.83;;;;;;;10.15;61.53;99768.75;5069615;28;20271;-59
2022/01/07 09:23:27;;;;;;;19.80;10.43;;;;;;;10.31;60.74;99767.38;5068541;28;20307;-58
2022/01/07 09:25:54;;;;;;;15.63;9.33;;;;;;;10.41;60.97;99766.75;5068422;28;20191;-59
2022/01/07 09:28:21;;;;;;;14.70;9.57;;;;;;;10.49;60.38;99772.94;5069822;28;20230;-59
2022/01/07 09:30:48;;;;;;;12.97;9.67;;;;;;;10.41;60.70;99766.75;5070294;28;20580;-58
2022/01/07 09:33:15;;;;;;;13.90;9.80;;;;;;;10.49;60.44;99760.94;5069559;28;20191;-58
2022/01/07 09:35:44;;;;;;;15.43;10.30;;;;;;;10.48;60.42;99768.63;5069541;28;20210;-58
2022/01/07 09:38:11;;;;;;;13.57;9.23;;;;;;;10.57;60.02;99761.09;5068258;28;20240;-58
2022/01/07 09:40:39;;;;;;;14.00;9.57;;;;;;;10.65;59.73;99756.97;5068245;28;20258;-59
2022/01/07 09:43:08;;;;;;;11.83;8.87;;;;;;;10.77;59.19;99762.34;5068606;28;20198;-58
2022/01/07 09:45:37;;;;;;;14.23;8.40;;;;;;;10.79;58.88;99762.41;5080235;28;20226;-58
2022/01/07 09:48:04;;;;;;;13.47;8.60;;;;;;;10.84;59.18;99769.34;5072507;28;20642;-59
2022/01/07 09:50:33;;;;;;;13.13;8.90;;;;;;;11.00;58.95;99771.38;5067496;28;20188;-59
2022/01/07 09:53:05;;;;;;;10.57;8.23;;;;;;;11.16;58.24;99759.66;5069041;28;20217;-58
2022/01/07 09:55:32;;;;;;;11.13;8.10;;;;;;;11.26;57.92;99762.41;5066857;28;20196;-59
2022/01/07 09:58:00;;;;;;;13.10;9.33;;;;;;;11.43;57.81;99759.25;5069082;28;20650;-58
2022/01/07 10:00:34;;;;;;;12.87;9.67;;;;;;;11.43;57.36;99769.56;5069390;28;20199;-59
2022/01/07 10:03:03;;;;;;;12.13;10.00;;;;;;;11.33;57.39;99760.84;5061524;28;20204;-59
2022/01/07 10:05:30;;;;;;;12.37;9.50;;;;;;;11.40;57.08;99761.81;5055571;28;20303;-60
2022/01/07 10:07:57;;;;;;;14.93;10.53;;;;;;;11.42;57.07;99765.28;5069396;28;20570;-58
2022/01/07 10:10:27;;;;;;;13.20;9.73;;;;;;;11.43;57.21;99759.25;5069401;28;20201;-58
2022/01/07 10:12:59;;;;;;;15.40;10.33;;;;;;;11.48;57.50;99760.25;5068737;28;20207;-58
2022/01/07 10:15:29;;;;;;;13.87;10.27;;;;;;;11.42;57.65;99757.56;5069085;28;20586;-59
2022/01/07 10:18:01;;;;;;;18.20;11.07;;;;;;;11.50;57.86;99748.25;5069150;28;20195;-58
2022/01/07 10:20:30;;;;;;;18.07;9.93;;;;;;;11.43;57.69;99748.97;5068191;28;20199;-59
2022/01/07 10:23:00;;;;;;;14.20;9.70;;;;;;;11.39;58.04;99752.34;5067765;28;20194;-59
2022/01/07 10:25:28;;;;;;;13.00;9.90;;;;;;;11.44;58.00;99756.75;5068939;28;20219;-58
2022/01/07 10:28:05;;;;;;;13.90;9.80;;;;;;;11.51;58.03;99747.44;5069220;28;21080;-59
2022/01/07 10:30:41;;;;;;;12.75;10.32;;;;;;;11.59;58.19;99735.56;5068322;28;20448;-58
2022/01/07 10:33:19;;;;;;;12.07;9.63;;;;;;;11.73;57.50;99731.50;5069272;28;20666;-58
2022/01/07 10:35:47;;;;;;;10.17;9.07;;;;;;;11.71;57.40;99728.03;5068807;28;20214;-58
2022/01/07 10:38:20;;;;;;;11.13;8.80;;;;;;;11.73;57.45;99731.50;5068963;28;20199;-59
2022/01/07 10:40:49;;;;;;;12.50;8.80;;;;;;;11.77;57.03;99730.72;5066581;28;20257;-60
2022/01/07 10:43:18;;;;;;;16.47;9.80;;;;;;;11.71;57.65;99723.75;5069062;28;20183;-58
2022/01/07 10:45:48;;;;;;;14.97;9.60;;;;;;;11.75;57.78;99725.56;5068968;28;20198;-58
2022/01/07 10:48:16;;;;;;;11.27;7.83;;;;;;;11.72;57.24;99725.50;5065418;28;20214;-59
2022/01/07 10:50:45;;;;;;;10.03;8.87;;;;;;;11.71;57.81;99723.75;5069088;28;20194;-59
2022/01/07 10:53:18;;;;;;;12.43;9.53;;;;;;;11.78;57.32;99728.13;5068936;28;20705;-59
2022/01/07 10:56:06;;;;;;;11.70;8.13;;;;;;;11.69;57.32;99728.03;5066198;28;20693;-58
2022/01/07 10:58:50;;;;;;;12.80;8.90;;;;;;;11.51;58.11;99726.84;5067844;28;20192;-59
2022/01/07 11:01:48;;;;;;;13.00;9.10;;;;;;;11.61;57.95;99723.56;5063360;28;20196;-59
2022/01/07 11:04:17;;;;;;;9.60;8.37;;;;;;;11.60;58.38;99724.41;5054562;28;20200;-58
2022/01/07 11:06:45;;;;;;;11.43;9.03;;;;;;;11.58;57.96;99728.66;5069347;28;20191;-58
2022/01/07 11:09:14;;;;;;;10.23;9.10;;;;;;;11.69;57.88;99724.59;5062949;28;20207;-58
2022/01/07 11:11:45;;;;;;;14.03;8.93;;;;;;;11.73;57.91;99728.91;5060789;28;20199;-58
2022/01/07 11:14:16;;;;;;;11.67;9.07;;;;;;;11.78;57.63;99728.13;5073232;28;20250;-58
2022/01/07 11:16:44;;;;;;;9.93;8.13;;;;;;;11.76;57.52;99723.81;5072822;28;20206;-58
2022/01/07 11:19:12;;;;;;;11.63;8.87;;;;;;;11.75;57.69;99720.41;5068951;28;20207;-59
2022/01/07 11:21:41;;;;;;;10.97;8.73;;;;;;;11.78;57.85;99724.72;5052652;28;20196;-59
2022/01/07 11:24:40;;;;;;;12.43;9.20;;;;;;;11.75;58.01;99719.53;5068015;28;20241;-58
2022/01/07 11:27:09;;;;;;;10.10;8.70;;;;;;;11.64;58.44;99721.91;5069332;28;20191;-58
2022/01/07 11:29:37;;;;;;;10.50;8.93;;;;;;;11.66;58.41;99717.66;5070313;28;20215;-59
2022/01/07 11:32:40;;;;;;;11.90;8.83;;;;;;;11.75;58.06;99719.53;5071265;28;20570;-59
2022/01/07 11:35:47;;;;;;;10.73;8.70;;;;;;;11.67;58.59;99726.25;5037798;28;20200;-59
2022/01/07 11:38:39;;;;;;;19.27;10.60;;;;;;;11.68;58.39;99717.66;5049117;28;20196;-58